createdAt,value
2023-04-25T00:00:53.685Z,2.10
2023-04-25T00:03:26.548Z,2.30
2023-04-25T00:05:58.067Z,2.10
2023-04-25T00:08:27.724Z,2.05
2023-04-25T00:10:56.186Z,2.03
2023-04-25T00:13:28.839Z,2.10
2023-04-25T00:15:59.782Z,2.00
2023-04-25T00:18:29.954Z,1.85
2023-04-25T00:21:01.347Z,1.75
2023-04-25T00:23:31.129Z,1.50
2023-04-25T00:26:00.608Z,1.77
2023-04-25T00:28:30.140Z,1.80
2023-04-25T00:30:58.555Z,2.00
2023-04-25T00:33:35.112Z,1.70
2023-04-25T00:36:18.549Z,1.60
2023-04-25T00:38:47.090Z,1.80
2023-04-25T00:41:15.959Z,1.77
2023-04-25T00:43:44.826Z,1.70
2023-04-25T00:46:15.260Z,1.63
2023-04-25T00:48:43.936Z,1.70
2023-04-25T00:51:19.133Z,1.65
2023-04-25T00:53:53.001Z,1.63
2023-04-25T00:56:34.811Z,1.40
2023-04-25T00:59:03.162Z,1.40
2023-04-25T01:01:33.515Z,1.48
2023-04-25T01:04:03.830Z,1.60
2023-04-25T01:06:35.291Z,1.50
2023-04-25T01:09:06.201Z,1.40
2023-04-25T01:11:39.310Z,1.60
2023-04-25T01:14:16.738Z,1.80
2023-04-25T01:16:48.065Z,1.73
2023-04-25T01:19:19.912Z,1.80
2023-04-25T01:21:54.108Z,1.80
2023-04-25T01:24:23.573Z,1.50
2023-04-25T01:26:58.227Z,1.50
2023-04-25T01:29:28.539Z,2.10
2023-04-25T01:32:01.182Z,1.90
2023-04-25T01:34:37.229Z,1.40
2023-04-25T01:37:10.352Z,1.50
2023-04-25T01:39:38.974Z,1.85
2023-04-25T01:42:09.701Z,1.73
2023-04-25T01:44:40.752Z,1.67
2023-04-25T01:47:19.235Z,1.77
2023-04-25T01:49:48.854Z,2.10
2023-04-25T01:52:19.000Z,1.90
2023-04-25T01:54:49.119Z,2.05
2023-04-25T01:57:18.247Z,2.50
2023-04-25T01:59:47.056Z,3.10
2023-04-25T02:02:15.690Z,3.00
2023-04-25T02:04:46.148Z,2.70
2023-04-25T02:07:17.020Z,2.80
2023-04-25T02:09:47.237Z,2.53
2023-04-25T02:12:15.690Z,2.35
2023-04-25T02:14:44.246Z,2.42
2023-04-25T02:17:13.811Z,5.15
2023-04-25T02:19:44.486Z,4.07
2023-04-25T02:22:18.719Z,4.53
2023-04-25T02:24:50.802Z,5.32
2023-04-25T02:27:21.242Z,4.10
2023-04-25T02:29:51.963Z,3.72
2023-04-25T02:32:20.619Z,3.92
2023-04-25T02:34:59.678Z,4.03
2023-04-25T02:37:28.122Z,3.45
2023-04-25T02:40:05.556Z,3.30
2023-04-25T02:42:33.993Z,2.58
2023-04-25T02:45:03.830Z,2.50
2023-04-25T02:47:32.772Z,2.70
2023-04-25T02:50:03.291Z,2.70
2023-04-25T02:52:34.659Z,3.20
2023-04-25T02:55:08.294Z,2.60
2023-04-25T02:57:36.777Z,2.78
2023-04-25T03:00:07.014Z,3.03
2023-04-25T03:02:36.586Z,2.78
2023-04-25T03:05:06.000Z,3.60
2023-04-25T03:07:34.510Z,3.45
2023-04-25T03:10:09.996Z,3.42
2023-04-25T03:12:43.327Z,3.80
2023-04-25T03:15:12.436Z,3.38
2023-04-25T03:17:41.613Z,3.70
2023-04-25T03:20:11.961Z,3.83
2023-04-25T03:22:40.900Z,4.30
2023-04-25T03:25:13.188Z,3.78
2023-04-25T03:27:47.788Z,3.50
2023-04-25T03:30:17.449Z,3.78
2023-04-25T03:32:48.303Z,3.40
2023-04-25T03:35:16.997Z,3.28
2023-04-25T03:37:51.596Z,3.50
2023-04-25T03:40:21.615Z,3.30
2023-04-25T03:42:50.161Z,4.10
2023-04-25T03:45:18.815Z,2.95
2023-04-25T03:47:53.542Z,3.22
2023-04-25T03:50:28.131Z,3.50
2023-04-25T03:52:58.717Z,2.92
2023-04-25T03:55:29.592Z,3.42
2023-04-25T03:58:00.203Z,3.13
2023-04-25T04:00:29.966Z,3.58
2023-04-25T04:02:59.549Z,4.00
2023-04-25T04:05:30.749Z,3.67
2023-04-25T04:07:59.214Z,4.15
2023-04-25T04:10:35.989Z,3.92
2023-04-25T04:13:04.316Z,3.85
2023-04-25T04:15:34.490Z,4.30
2023-04-25T04:18:04.720Z,4.30
2023-04-25T04:20:35.639Z,4.22
2023-04-25T04:23:04.383Z,4.50
2023-04-25T04:25:40.937Z,4.75
2023-04-25T04:28:12.431Z,4.38
2023-04-25T04:30:42.373Z,4.22
2023-04-25T04:33:14.429Z,4.55
2023-04-25T04:35:44.225Z,5.03
2023-04-25T04:38:13.893Z,5.03
2023-04-25T04:40:44.155Z,4.45
2023-04-25T04:43:13.690Z,5.30
2023-04-25T04:45:42.475Z,5.47
2023-04-25T04:48:15.385Z,5.25
2023-04-25T04:50:46.455Z,5.30
2023-04-25T04:53:21.437Z,5.55
2023-04-25T04:55:51.520Z,5.07
2023-04-25T04:58:21.195Z,4.80
2023-04-25T05:00:49.980Z,5.38
2023-04-25T05:03:19.607Z,5.85
2023-04-25T05:05:49.511Z,5.72
2023-04-25T05:08:20.942Z,5.53
2023-04-25T05:10:50.869Z,5.68
2023-04-25T05:13:20.336Z,5.47
2023-04-25T05:15:48.729Z,5.22
2023-04-25T05:18:31.201Z,5.68
2023-04-25T05:20:59.693Z,5.78
2023-04-25T05:23:33.257Z,5.43
2023-04-25T05:26:14.941Z,5.53
2023-04-25T05:28:44.469Z,5.13
2023-04-25T05:31:15.067Z,5.72
2023-04-25T05:33:43.475Z,6.70
2023-04-25T05:36:12.226Z,6.28
2023-04-25T05:38:46.219Z,6.57
2023-04-25T05:41:17.618Z,6.68
2023-04-25T05:43:50.190Z,6.53
2023-04-25T05:46:19.336Z,6.00
2023-04-25T05:48:49.385Z,6.07
2023-04-25T05:51:19.600Z,5.60
2023-04-25T05:53:48.157Z,5.80
2023-04-25T05:56:18.281Z,5.15
2023-04-25T05:58:46.560Z,5.25
2023-04-25T06:01:15.730Z,5.15
2023-04-25T06:03:45.452Z,4.97
2023-04-25T06:06:15.153Z,5.82
2023-04-25T06:08:46.056Z,4.57
2023-04-25T06:11:14.802Z,4.53
2023-04-25T06:13:44.827Z,4.88
2023-04-25T06:16:13.504Z,4.55
2023-04-25T06:18:42.107Z,4.65
2023-04-25T06:21:10.588Z,4.80
2023-04-25T06:23:39.858Z,4.93
2023-04-25T06:26:08.795Z,4.72
2023-04-25T06:28:37.416Z,4.47
2023-04-25T06:31:07.440Z,4.82
2023-04-25T06:33:35.774Z,4.35
2023-04-25T06:36:05.684Z,4.78
2023-04-25T06:38:36.224Z,4.82
2023-04-25T06:41:04.986Z,4.72
2023-04-25T06:43:34.687Z,4.60
2023-04-25T06:46:03.467Z,4.50
2023-04-25T06:48:33.348Z,4.90
2023-04-25T06:51:01.862Z,4.50
2023-04-25T06:53:31.373Z,4.53
2023-04-25T06:55:59.754Z,5.88
2023-04-25T06:58:28.734Z,4.68
2023-04-25T07:00:57.688Z,6.22
2023-04-25T07:03:26.779Z,5.45
2023-04-25T07:05:56.796Z,4.47
2023-04-25T07:08:25.354Z,4.30
2023-04-25T07:10:54.000Z,5.13
2023-04-25T07:13:22.661Z,5.00
2023-04-25T07:15:51.260Z,4.10
2023-04-25T07:18:19.816Z,3.72
2023-04-25T07:20:48.583Z,4.00
2023-04-25T07:23:19.247Z,4.13
2023-04-25T07:25:48.056Z,3.97
2023-04-25T07:28:18.827Z,4.60
2023-04-25T07:30:47.825Z,4.70
2023-04-25T07:33:16.481Z,4.63
2023-04-25T07:35:44.874Z,4.70
2023-04-25T07:38:13.393Z,4.70
2023-04-25T07:40:43.454Z,4.40
2023-04-25T07:43:13.451Z,4.30
2023-04-25T07:45:43.987Z,4.22
2023-04-25T07:48:12.785Z,3.70
2023-04-25T07:50:41.537Z,4.45
2023-04-25T07:53:09.909Z,4.65
2023-04-25T07:55:41.592Z,4.85
2023-04-25T07:58:12.549Z,4.90
2023-04-25T08:00:40.980Z,4.97
2023-04-25T08:03:10.132Z,5.32
2023-04-25T08:05:39.165Z,6.03
2023-04-25T08:08:08.692Z,5.93
2023-04-25T08:10:37.412Z,5.85
2023-04-25T08:13:06.005Z,5.07
2023-04-25T08:15:36.295Z,5.78
2023-04-25T08:18:04.921Z,5.30
2023-04-25T08:20:33.393Z,5.50
2023-04-25T08:23:01.857Z,6.50
2023-04-25T08:25:31.532Z,6.03
2023-04-25T08:28:01.236Z,5.53
2023-04-25T08:30:29.547Z,5.70
2023-04-25T08:32:59.833Z,5.10
2023-04-25T08:35:30.853Z,5.90
2023-04-25T08:37:59.654Z,5.07
2023-04-25T08:40:31.571Z,5.15
2023-04-25T08:43:01.214Z,5.18
2023-04-25T08:45:33.430Z,4.60
2023-04-25T08:48:05.346Z,4.80
2023-04-25T08:50:33.983Z,4.72
2023-04-25T08:53:07.766Z,4.13
2023-04-25T08:55:36.855Z,4.15
2023-04-25T08:58:06.861Z,4.90
2023-04-25T09:00:35.652Z,4.65
2023-04-25T09:03:06.767Z,4.38
2023-04-25T09:05:36.635Z,2.83
2023-04-25T09:08:05.211Z,2.85
2023-04-25T09:10:33.805Z,3.40
2023-04-25T09:13:06.965Z,5.78
2023-04-25T09:15:35.548Z,5.72
2023-04-25T09:18:06.320Z,5.88
2023-04-25T09:20:56.379Z,6.00
2023-04-25T09:23:29.692Z,6.30
2023-04-25T09:25:58.484Z,5.95
2023-04-25T09:28:30.900Z,4.75
2023-04-25T09:31:00.179Z,3.33
2023-04-25T09:33:34.707Z,1.63
2023-04-25T09:36:05.934Z,1.80
2023-04-25T09:38:42.480Z,1.92
2023-04-25T09:41:12.406Z,2.00
2023-04-25T09:43:41.987Z,1.50
2023-04-25T09:46:12.536Z,2.10
2023-04-25T09:48:42.985Z,2.10
2023-04-25T09:51:12.837Z,1.80
2023-04-25T09:53:43.640Z,2.13
2023-04-25T09:56:14.140Z,2.22
2023-04-25T09:58:43.918Z,2.05
2023-04-25T10:01:14.055Z,2.28
2023-04-25T10:03:45.879Z,2.03
2023-04-25T10:06:23.005Z,2.00
2023-04-25T10:08:56.996Z,2.20
2023-04-25T10:11:28.360Z,2.20
2023-04-25T10:13:59.081Z,2.10
2023-04-25T10:16:28.033Z,2.00
2023-04-25T10:18:59.098Z,2.17
2023-04-25T10:21:32.007Z,2.63
2023-04-25T10:24:00.710Z,2.55
2023-04-25T10:26:31.305Z,2.10
2023-04-25T10:29:01.263Z,1.92
2023-04-25T10:31:30.089Z,1.85
2023-04-25T10:34:02.125Z,1.45
2023-04-25T10:36:34.478Z,1.80
2023-04-25T10:39:10.673Z,2.05
2023-04-25T10:41:50.125Z,1.90
2023-04-25T10:44:18.953Z,1.55
2023-04-25T10:46:48.274Z,1.60
2023-04-25T10:49:34.955Z,1.50
2023-04-25T10:52:27.830Z,1.50
2023-04-25T10:54:58.266Z,1.30
2023-04-25T10:57:39.170Z,1.50
2023-04-25T11:00:12.206Z,1.80
2023-04-25T11:02:44.426Z,1.83
2023-04-25T11:05:22.851Z,1.88
2023-04-25T11:08:07.059Z,1.60
2023-04-25T11:10:38.344Z,1.80
2023-04-25T11:13:06.923Z,2.10
2023-04-25T11:15:35.330Z,1.30
2023-04-25T11:18:04.357Z,1.83
2023-04-25T11:20:34.870Z,2.13
2023-04-25T11:25:33.713Z,1.80
2023-04-25T11:28:04.203Z,1.83
2023-04-25T11:30:32.784Z,1.92
2023-04-25T11:33:04.541Z,2.00
2023-04-25T11:35:35.131Z,1.90
2023-04-25T11:38:04.145Z,1.70
2023-04-25T11:40:33.885Z,1.70
2023-04-25T11:43:03.546Z,1.77
2023-04-25T11:45:32.480Z,1.85
2023-04-25T11:48:01.404Z,1.80
2023-04-25T11:50:30.990Z,2.05
2023-04-25T11:53:01.367Z,2.00
2023-04-25T11:55:33.754Z,2.10
2023-04-25T11:58:03.701Z,2.17
2023-04-25T12:00:33.148Z,2.05
2023-04-25T12:03:01.784Z,1.80
2023-04-25T12:05:35.159Z,1.98
2023-04-25T12:08:16.985Z,1.67
2023-04-25T12:10:46.493Z,2.20
2023-04-25T12:13:23.595Z,2.00
2023-04-25T12:15:52.750Z,1.98
2023-04-25T12:18:28.905Z,2.53
2023-04-25T12:20:57.485Z,2.00
2023-04-25T12:23:31.647Z,2.40
2023-04-25T12:26:00.380Z,2.20
2023-04-25T12:28:29.774Z,2.22
2023-04-25T12:31:00.375Z,2.80
2023-04-25T12:33:30.318Z,2.40
2023-04-25T12:36:00.204Z,2.60
2023-04-25T12:38:32.082Z,2.10
2023-04-25T12:41:01.136Z,2.17
2023-04-25T12:43:30.387Z,2.38
2023-04-25T12:45:59.392Z,2.10
2023-04-25T12:48:27.800Z,2.38
2023-04-25T12:50:56.136Z,1.90
2023-04-25T12:53:26.119Z,2.22
2023-04-25T12:55:57.190Z,1.85
2023-04-25T12:58:26.619Z,2.03
2023-04-25T13:00:55.319Z,2.25
2023-04-25T13:03:24.771Z,2.00
2023-04-25T13:05:54.063Z,2.15
2023-04-25T13:08:22.381Z,2.13
2023-04-25T13:10:51.068Z,2.17
2023-04-25T13:13:21.557Z,2.20
2023-04-25T13:15:50.539Z,1.95
2023-04-25T13:18:20.238Z,2.00
2023-04-25T13:20:49.008Z,1.92
2023-04-25T13:23:17.754Z,2.05
2023-04-25T13:25:46.169Z,2.45
2023-04-25T13:28:15.193Z,2.78
2023-04-25T13:30:46.750Z,2.28
2023-04-25T13:33:18.058Z,2.38
2023-04-25T13:35:48.034Z,3.15
2023-04-25T13:38:16.844Z,3.13
2023-04-25T13:40:48.908Z,3.30
2023-04-25T13:43:23.388Z,3.13
2023-04-25T13:45:53.920Z,3.42
2023-04-25T13:48:23.835Z,3.53
2023-04-25T13:50:52.673Z,3.20
2023-04-25T13:53:21.233Z,3.60
2023-04-25T13:55:51.671Z,3.28
2023-04-25T13:58:21.873Z,3.50
2023-04-25T14:00:50.231Z,3.38
2023-04-25T14:03:20.477Z,3.67
2023-04-25T14:05:49.160Z,3.40
2023-04-25T14:08:17.703Z,3.42
2023-04-25T14:10:46.256Z,3.47
2023-04-25T14:13:15.137Z,3.72
2023-04-25T14:15:43.569Z,3.67
2023-04-25T14:18:12.231Z,3.47
2023-04-25T14:20:42.372Z,2.80
2023-04-25T14:23:11.012Z,3.10
2023-04-25T14:25:39.863Z,3.10
2023-04-25T14:28:08.347Z,3.03
2023-04-25T14:30:37.499Z,3.00
2023-04-25T14:33:06.716Z,2.80
2023-04-25T14:35:35.470Z,2.78
2023-04-25T14:38:06.828Z,2.97
2023-04-25T14:40:35.161Z,2.42
2023-04-25T14:43:03.841Z,2.00
2023-04-25T14:45:32.812Z,2.60
2023-04-25T14:48:01.714Z,2.90
2023-04-25T14:50:30.251Z,2.47
2023-04-25T14:53:02.035Z,2.60
2023-04-25T14:55:32.379Z,2.45
2023-04-25T14:58:01.076Z,2.25
2023-04-25T15:00:29.585Z,2.63
2023-04-25T15:02:58.924Z,2.20
2023-04-25T15:05:27.794Z,2.40
2023-04-25T15:07:56.659Z,1.85
2023-04-25T15:10:26.439Z,2.53
2023-04-25T15:12:56.722Z,2.33
2023-04-25T15:15:26.894Z,2.30
2023-04-25T15:17:59.071Z,2.13
2023-04-25T15:20:29.157Z,2.60
2023-04-25T15:22:58.446Z,2.38
2023-04-25T15:25:27.446Z,2.40
2023-04-25T15:27:58.773Z,2.33
2023-04-25T15:30:27.272Z,2.50
2023-04-25T15:32:56.670Z,2.75
2023-04-25T15:35:25.412Z,2.63
2023-04-25T15:37:54.005Z,2.50
2023-04-25T15:40:22.814Z,2.45
2023-04-25T15:42:52.989Z,2.90
2023-04-25T15:45:26.332Z,2.97
2023-04-25T15:47:57.634Z,2.70
2023-04-25T15:50:26.343Z,2.75
2023-04-25T15:52:55.971Z,3.03
2023-04-25T15:55:27.221Z,2.63
2023-04-25T15:57:56.052Z,3.10
2023-04-25T16:00:26.984Z,2.90
2023-04-25T16:02:55.813Z,2.50
2023-04-25T16:05:24.785Z,2.63
2023-04-25T16:07:54.455Z,3.10
2023-04-25T16:10:23.111Z,3.65
2023-04-25T16:12:51.999Z,3.35
2023-04-25T16:15:20.694Z,3.30
2023-04-25T16:17:51.241Z,3.67
2023-04-25T16:20:20.866Z,3.38
2023-04-25T16:22:49.428Z,2.83
2023-04-25T16:25:18.258Z,3.17
2023-04-25T16:27:47.455Z,3.25
2023-04-25T16:30:16.112Z,3.28
2023-04-25T16:32:45.616Z,3.38
2023-04-25T16:35:15.824Z,3.55
2023-04-25T16:37:45.000Z,3.85
2023-04-25T16:40:14.097Z,3.97
2023-04-25T16:42:42.948Z,4.10
2023-04-25T16:45:17.903Z,3.80
2023-04-25T16:47:46.675Z,3.92
2023-04-25T16:50:17.352Z,4.07
2023-04-25T16:52:45.902Z,4.28
2023-04-25T16:55:31.221Z,4.18
2023-04-25T16:58:03.592Z,3.90
2023-04-25T17:00:42.045Z,3.53
2023-04-25T17:03:18.941Z,4.03
2023-04-25T17:05:52.322Z,3.80
2023-04-25T17:08:25.691Z,3.83
2023-04-25T17:10:54.070Z,3.60
2023-04-25T17:13:31.029Z,3.63
2023-04-25T17:16:01.026Z,3.30
2023-04-25T17:18:29.742Z,3.03
2023-04-25T17:21:00.708Z,3.15
2023-04-25T17:23:31.807Z,3.50
2023-04-25T17:26:01.663Z,3.85
2023-04-25T17:28:30.290Z,3.53
2023-04-25T17:30:58.819Z,3.55
2023-04-25T17:33:27.989Z,3.80
2023-04-25T17:35:57.196Z,3.65
2023-04-25T17:38:28.161Z,3.55
2023-04-25T17:40:56.804Z,3.63
2023-04-25T17:43:25.315Z,3.60
2023-04-25T17:45:53.994Z,3.72
2023-04-25T17:48:23.759Z,3.60
2023-04-25T17:50:52.872Z,3.72
2023-04-25T17:53:22.583Z,4.05
2023-04-25T17:55:52.605Z,4.60
2023-04-25T17:58:22.470Z,4.13
2023-04-25T18:00:50.966Z,3.92
2023-04-25T18:03:23.629Z,3.40
2023-04-25T18:05:54.941Z,3.63
2023-04-25T18:08:24.909Z,4.00
2023-04-25T18:10:54.824Z,3.90
2023-04-25T18:13:24.612Z,3.90
2023-04-25T18:15:53.329Z,3.58
2023-04-25T18:18:25.833Z,4.22
2023-04-25T18:20:56.087Z,4.15
2023-04-25T18:23:26.520Z,3.88
2023-04-25T18:25:56.579Z,3.45
2023-04-25T18:28:26.116Z,3.42
2023-04-25T18:30:59.020Z,3.70
2023-04-25T18:33:36.816Z,3.92
2023-04-25T18:36:10.410Z,3.88
2023-04-25T18:38:38.696Z,4.22
2023-04-25T18:41:47.932Z,3.80
2023-04-25T18:44:09.552Z,4.70
2023-04-25T18:46:43.699Z,4.65
2023-04-25T18:49:12.437Z,4.10
2023-04-25T18:51:41.888Z,3.85
2023-04-25T18:54:12.137Z,3.88
2023-04-25T18:56:44.360Z,3.50
2023-04-25T18:59:12.714Z,3.60
2023-04-25T19:01:42.309Z,3.67
2023-04-25T19:04:11.430Z,3.50
2023-04-25T19:06:42.673Z,4.10
2023-04-25T19:09:11.337Z,4.10
2023-04-25T19:11:40.189Z,4.07
2023-04-25T19:14:10.415Z,4.20
2023-04-25T19:16:40.167Z,4.15
2023-04-25T19:19:13.311Z,4.18
2023-04-25T19:21:50.726Z,3.97
2023-04-25T19:24:24.370Z,4.20
2023-04-25T19:26:52.901Z,3.85
2023-04-25T19:29:30.346Z,4.32
2023-04-25T19:32:00.043Z,4.32
2023-04-25T19:34:29.627Z,3.80
2023-04-25T19:36:58.146Z,3.83
2023-04-25T19:39:26.554Z,3.92
2023-04-25T19:41:56.999Z,4.05
2023-04-25T19:44:26.135Z,3.50
2023-04-25T19:46:56.493Z,4.00
2023-04-25T19:49:28.373Z,3.58
2023-04-25T19:51:58.908Z,4.05
2023-04-25T19:54:34.487Z,3.70
2023-04-25T19:57:06.925Z,3.45
2023-04-25T19:59:36.222Z,3.60
2023-04-25T20:02:11.465Z,3.50
2023-04-25T20:04:42.575Z,3.70
2023-04-25T20:07:12.027Z,3.40
2023-04-25T20:09:40.598Z,3.78
2023-04-25T20:12:12.089Z,3.28
2023-04-25T20:14:46.662Z,3.03
2023-04-25T20:17:17.651Z,3.60
2023-04-25T20:19:48.304Z,3.30
2023-04-25T20:22:17.952Z,3.65
2023-04-25T20:24:50.382Z,3.38
2023-04-25T20:27:27.067Z,3.67
2023-04-25T20:30:04.428Z,3.85
2023-04-25T20:32:34.872Z,3.50
2023-04-25T20:35:06.601Z,3.65
2023-04-25T20:37:37.217Z,3.63
2023-04-25T20:40:09.062Z,3.22
2023-04-25T20:42:39.099Z,2.95
2023-04-25T20:45:13.638Z,2.67
2023-04-25T20:47:44.888Z,3.10
2023-04-25T20:50:15.372Z,2.78
2023-04-25T20:52:44.574Z,3.22
2023-04-25T20:55:19.167Z,2.50
2023-04-25T20:58:03.582Z,2.67
2023-04-25T21:00:41.288Z,3.00
2023-04-25T21:03:21.668Z,2.72
2023-04-25T21:05:50.749Z,3.13
2023-04-25T21:08:19.379Z,3.20
2023-04-25T21:10:47.788Z,3.60
2023-04-25T21:13:19.224Z,3.22
2023-04-25T21:15:47.795Z,3.03
2023-04-25T21:18:17.951Z,3.10
2023-04-25T21:20:47.880Z,2.90
2023-04-25T21:23:22.443Z,2.78
2023-04-25T21:25:55.150Z,2.75
2023-04-25T21:28:23.940Z,2.70
2023-04-25T21:30:52.663Z,2.50
2023-04-25T21:33:25.520Z,2.85
2023-04-25T21:36:02.253Z,2.55
2023-04-25T21:38:30.828Z,2.65
2023-04-25T21:41:02.351Z,3.08
2023-04-25T21:43:35.661Z,2.88
2023-04-25T21:48:37.665Z,2.80
2023-04-25T21:51:12.779Z,2.70
2023-04-25T21:53:42.657Z,2.63
2023-04-25T21:56:11.501Z,2.60
2023-04-25T21:58:39.991Z,3.05
2023-04-25T22:01:08.925Z,2.70
2023-04-25T22:03:39.907Z,2.80
2023-04-25T22:06:10.971Z,2.60
2023-04-25T22:08:39.714Z,2.28
2023-04-25T22:11:09.219Z,2.40
2023-04-25T22:13:39.129Z,2.67
2023-04-25T22:16:17.523Z,2.60
2023-04-25T22:18:48.758Z,2.40
2023-04-25T22:21:19.795Z,2.20
2023-04-25T22:23:48.417Z,2.40
2023-04-25T22:26:18.150Z,2.42
2023-04-25T22:28:46.594Z,2.47
2023-04-25T22:31:17.746Z,2.25
2023-04-25T22:33:54.913Z,2.60
2023-04-25T22:36:29.757Z,2.72
2023-04-25T22:38:58.394Z,2.65
2023-04-25T22:41:28.100Z,2.65
2023-04-25T22:44:04.294Z,2.65
2023-04-25T22:46:39.864Z,3.00
2023-04-25T22:49:13.990Z,2.90
2023-04-25T22:51:44.567Z,2.70
2023-04-25T22:54:15.210Z,2.90
2023-04-25T22:56:44.515Z,3.03
2023-04-25T22:59:18.269Z,2.97
2023-04-25T23:01:46.938Z,2.60
2023-04-25T23:04:18.973Z,2.65
2023-04-25T23:06:48.038Z,2.58
2023-04-25T23:09:17.561Z,2.90
2023-04-25T23:11:46.169Z,2.95
2023-04-25T23:14:15.806Z,2.63
2023-04-25T23:16:45.670Z,3.05
2023-04-25T23:19:21.767Z,2.80
2023-04-25T23:21:52.180Z,3.08
2023-04-25T23:24:23.394Z,2.92
2023-04-25T23:26:52.398Z,3.00
2023-04-25T23:29:21.203Z,3.17
2023-04-25T23:31:55.643Z,3.30
2023-04-25T23:34:25.632Z,3.25
2023-04-25T23:36:56.038Z,2.97
2023-04-25T23:39:27.781Z,2.90
2023-04-25T23:41:56.476Z,3.25
2023-04-25T23:44:25.685Z,3.42
2023-04-25T23:47:01.875Z,3.55
2023-04-25T23:49:34.855Z,3.33
2023-04-25T23:52:05.326Z,3.28
2023-04-25T23:54:42.163Z,3.72
2023-04-25T23:57:12.353Z,3.67
2023-04-25T23:59:41.343Z,3.70
